createdAt,value
2022-08-03T00:00:08.497Z,19.39
2022-08-03T00:01:08.496Z,19.33
2022-08-03T00:02:08.494Z,19.35
2022-08-03T00:03:08.517Z,19.38
2022-08-03T00:04:08.455Z,19.33
2022-08-03T00:05:09.434Z,19.29
2022-08-03T00:06:08.438Z,19.31
2022-08-03T00:07:08.443Z,19.25
2022-08-03T00:08:08.417Z,19.23
2022-08-03T00:09:08.397Z,19.32
2022-08-03T00:10:08.393Z,19.36
2022-08-03T00:11:08.385Z,19.29
2022-08-03T00:12:08.391Z,19.28
2022-08-03T00:13:08.367Z,19.23
2022-08-03T00:14:08.365Z,19.29
2022-08-03T00:15:08.384Z,19.25
2022-08-03T00:16:09.384Z,19.28
2022-08-03T00:17:08.344Z,19.23
2022-08-03T00:18:08.320Z,19.35
2022-08-03T00:19:08.308Z,19.24
2022-08-03T00:20:08.303Z,19.15
2022-08-03T00:21:08.309Z,19.24
2022-08-03T00:22:08.300Z,19.32
2022-08-03T00:23:08.276Z,19.23
2022-08-03T00:24:08.263Z,19.25
2022-08-03T00:25:08.238Z,19.28
2022-08-03T00:26:08.245Z,19.35
2022-08-03T00:27:08.249Z,19.28
2022-08-03T00:28:08.225Z,19.24
2022-08-03T00:29:08.208Z,19.29
2022-08-03T00:30:08.202Z,19.21
2022-08-03T00:31:08.194Z,19.24
2022-08-03T00:32:10.928Z,19.14
2022-08-03T00:33:08.379Z,19.13
2022-08-03T00:34:08.166Z,19.14
2022-08-03T00:35:09.280Z,19.17
2022-08-03T00:36:08.141Z,19.17
2022-08-03T00:37:08.156Z,19.06
2022-08-03T00:38:08.122Z,19.13
2022-08-03T00:39:08.108Z,19.11
2022-08-03T00:40:08.099Z,19.05
2022-08-03T00:41:08.097Z,19.11
2022-08-03T00:42:08.100Z,19.17
2022-08-03T00:43:08.080Z,19.10
2022-08-03T00:44:08.062Z,19.01
2022-08-03T00:45:08.040Z,18.99
2022-08-03T00:46:08.038Z,18.98
2022-08-03T00:47:08.052Z,19.10
2022-08-03T00:48:19.572Z,18.97
2022-08-03T00:49:09.036Z,18.94
2022-08-03T00:50:08.002Z,18.87
2022-08-03T00:51:07.997Z,18.84
2022-08-03T00:52:09.547Z,18.87
2022-08-03T00:53:08.978Z,18.94
2022-08-03T00:54:07.967Z,18.95
2022-08-03T00:55:07.962Z,18.92
2022-08-03T00:56:07.953Z,18.87
2022-08-03T00:57:07.938Z,18.92
2022-08-03T00:58:07.939Z,18.92
2022-08-03T00:59:07.918Z,18.92
2022-08-03T01:00:07.905Z,18.87
2022-08-03T01:01:07.934Z,18.82
2022-08-03T01:02:07.917Z,18.91
2022-08-03T01:03:07.882Z,18.94
2022-08-03T01:04:07.870Z,18.80
2022-08-03T01:05:07.893Z,18.77
2022-08-03T01:06:07.854Z,18.82
2022-08-03T01:07:10.801Z,18.77
2022-08-03T01:08:07.853Z,18.86
2022-08-03T01:09:07.816Z,18.80
2022-08-03T01:10:07.814Z,18.74
2022-08-03T01:11:07.802Z,18.52
2022-08-03T01:12:07.787Z,18.36
2022-08-03T01:13:07.790Z,18.37
2022-08-03T01:14:19.316Z,18.44
2022-08-03T01:15:08.762Z,18.40
2022-08-03T01:16:07.796Z,18.49
2022-08-03T01:17:07.734Z,18.47
2022-08-03T01:18:07.749Z,18.44
2022-08-03T01:19:07.718Z,18.43
2022-08-03T01:20:07.713Z,18.47
2022-08-03T01:21:07.693Z,18.47
2022-08-03T01:22:07.691Z,18.47
2022-08-03T01:23:07.705Z,18.49
2022-08-03T01:24:07.673Z,18.42
2022-08-03T01:25:07.657Z,18.43
2022-08-03T01:26:07.659Z,18.43
2022-08-03T01:27:07.648Z,18.46
2022-08-03T01:28:07.688Z,18.52
2022-08-03T01:29:07.628Z,18.49
2022-08-03T01:30:07.615Z,18.54
2022-08-03T01:31:07.606Z,18.58
2022-08-03T01:33:00.917Z,18.47
2022-08-03T01:33:09.088Z,18.39
2022-08-03T01:34:08.408Z,18.49
2022-08-03T01:35:08.568Z,18.37
2022-08-03T01:36:07.552Z,18.36
2022-08-03T01:37:07.549Z,18.39
2022-08-03T01:38:07.553Z,18.44
2022-08-03T01:39:07.532Z,18.37
2022-08-03T01:40:07.532Z,18.34
2022-08-03T01:41:07.497Z,18.28
2022-08-03T01:42:07.500Z,18.17
2022-08-03T01:43:07.509Z,18.02
2022-08-03T01:44:29.523Z,17.97
2022-08-03T01:45:08.472Z,17.82
2022-08-03T01:46:07.465Z,17.88
2022-08-03T01:47:07.452Z,18.03
2022-08-03T01:48:07.466Z,17.89
2022-08-03T01:49:09.279Z,17.87
2022-08-03T01:50:07.429Z,17.81
2022-08-03T01:51:07.420Z,17.89
2022-08-03T01:52:07.406Z,17.88
2022-08-03T01:53:07.406Z,17.91
2022-08-03T01:54:07.392Z,17.92
2022-08-03T01:55:07.374Z,17.97
2022-08-03T01:56:07.356Z,17.95
2022-08-03T01:57:07.357Z,17.81
2022-08-03T01:58:07.364Z,17.95
2022-08-03T01:59:07.338Z,18.00
2022-08-03T02:00:07.324Z,17.94
2022-08-03T02:01:07.425Z,18.02
2022-08-03T02:02:31.722Z,18.00
2022-08-03T02:03:08.313Z,17.97
2022-08-03T02:04:07.288Z,18.07
2022-08-03T02:05:10.768Z,18.02
2022-08-03T02:07:00.304Z,17.97
2022-08-03T02:07:09.274Z,18.02
2022-08-03T02:08:07.270Z,18.09
2022-08-03T02:09:07.221Z,18.06
2022-08-03T02:10:07.232Z,17.95
2022-08-03T02:11:07.229Z,18.09
2022-08-03T02:12:07.209Z,18.02
2022-08-03T02:13:07.206Z,18.07
2022-08-03T02:14:07.189Z,18.02
2022-08-03T02:15:07.177Z,18.04
2022-08-03T02:16:07.170Z,17.85
2022-08-03T02:17:07.162Z,17.91
2022-08-03T02:18:07.161Z,17.97
2022-08-03T02:19:07.136Z,17.99
2022-08-03T02:20:07.123Z,17.92
2022-08-03T02:21:11.051Z,17.85
2022-08-03T02:22:07.101Z,17.84
2022-08-03T02:23:07.118Z,17.82
2022-08-03T02:24:07.084Z,17.71
2022-08-03T02:25:07.076Z,17.67
2022-08-03T02:26:07.065Z,17.70
2022-08-03T02:27:07.065Z,17.59
2022-08-03T02:28:07.064Z,17.66
2022-08-03T02:29:07.043Z,17.73
2022-08-03T02:30:07.023Z,17.69
2022-08-03T02:31:07.019Z,17.78
2022-08-03T02:32:07.029Z,17.73
2022-08-03T02:33:07.009Z,17.67
2022-08-03T02:34:06.984Z,17.50
2022-08-03T02:35:06.981Z,17.50
2022-08-03T02:36:06.964Z,17.51
2022-08-03T02:37:06.950Z,17.48
2022-08-03T02:38:06.961Z,17.38
2022-08-03T02:39:06.936Z,17.53
2022-08-03T02:40:06.928Z,17.48
2022-08-03T02:41:06.912Z,17.46
2022-08-03T02:42:06.906Z,17.50
2022-08-03T02:43:06.903Z,17.47
2022-08-03T02:44:07.465Z,17.48
2022-08-03T02:45:07.890Z,17.38
2022-08-03T02:46:06.863Z,17.50
2022-08-03T02:47:06.866Z,17.50
2022-08-03T02:48:06.858Z,17.41
2022-08-03T02:49:40.551Z,17.50
2022-08-03T02:50:07.882Z,17.36
2022-08-03T02:51:06.805Z,17.47
2022-08-03T02:52:06.798Z,17.44
2022-08-03T02:53:07.802Z,17.47
2022-08-03T02:54:06.783Z,17.44
2022-08-03T02:55:06.780Z,17.46
2022-08-03T02:56:06.764Z,17.50
2022-08-03T02:57:06.746Z,17.36
2022-08-03T02:58:06.753Z,17.30
2022-08-03T02:59:06.735Z,17.35
2022-08-03T03:00:06.720Z,17.38
2022-08-03T03:01:06.768Z,17.38
2022-08-03T03:02:06.698Z,17.35
2022-08-03T03:03:06.704Z,17.36
2022-08-03T03:04:06.680Z,17.44
2022-08-03T03:05:52.072Z,17.30
2022-08-03T03:06:07.668Z,17.29
2022-08-03T03:07:06.659Z,17.38
2022-08-03T03:08:06.655Z,17.30
2022-08-03T03:09:07.632Z,17.36
2022-08-03T03:10:06.622Z,17.25
2022-08-03T03:11:06.615Z,17.33
2022-08-03T03:12:06.602Z,17.23
2022-08-03T03:13:06.605Z,17.30
2022-08-03T03:14:06.581Z,17.28
2022-08-03T03:15:06.572Z,17.25
2022-08-03T03:16:06.622Z,17.29
2022-08-03T03:17:06.552Z,17.20
2022-08-03T03:18:06.559Z,17.20
2022-08-03T03:19:06.533Z,17.25
2022-08-03T03:20:06.524Z,17.20
2022-08-03T03:21:06.512Z,17.30
2022-08-03T03:22:06.504Z,17.25
2022-08-03T03:23:06.507Z,17.22
2022-08-03T03:24:06.491Z,17.29
2022-08-03T03:25:06.502Z,17.15
2022-08-03T03:26:06.466Z,17.20
2022-08-03T03:27:06.456Z,17.20
2022-08-03T03:28:06.621Z,17.15
2022-08-03T03:29:06.437Z,17.15
2022-08-03T03:30:06.430Z,17.11
2022-08-03T03:31:06.417Z,17.11
2022-08-03T03:32:08.467Z,17.10
2022-08-03T03:33:06.402Z,16.99
2022-08-03T03:34:06.380Z,16.99
2022-08-03T03:35:06.373Z,17.04
2022-08-03T03:36:06.368Z,17.00
2022-08-03T03:37:06.350Z,17.08
2022-08-03T03:38:06.363Z,17.00
2022-08-03T03:39:15.483Z,16.99
2022-08-03T03:40:07.329Z,16.93
2022-08-03T03:41:06.311Z,16.93
2022-08-03T03:42:06.310Z,16.85
2022-08-03T03:43:06.312Z,16.92
2022-08-03T03:44:06.297Z,16.98
2022-08-03T03:45:06.277Z,16.89
2022-08-03T03:46:06.259Z,16.90
2022-08-03T03:47:06.264Z,16.80
2022-08-03T03:48:06.260Z,16.80
2022-08-03T03:49:06.269Z,16.83
2022-08-03T03:50:06.237Z,16.74
2022-08-03T03:51:06.219Z,16.75
2022-08-03T03:52:06.216Z,16.77
2022-08-03T03:53:06.206Z,16.80
2022-08-03T03:54:06.185Z,16.75
2022-08-03T03:55:06.184Z,16.81
2022-08-03T03:56:06.169Z,16.80
2022-08-03T03:57:06.148Z,16.81
2022-08-03T03:58:06.163Z,16.78
2022-08-03T03:59:06.138Z,16.88
2022-08-03T04:00:06.147Z,16.86
2022-08-03T04:01:06.190Z,16.80
2022-08-03T04:02:06.113Z,16.85
2022-08-03T04:03:06.119Z,16.77
2022-08-03T04:04:06.092Z,16.83
2022-08-03T04:05:06.073Z,16.74
2022-08-03T04:06:06.073Z,16.74
2022-08-03T04:07:06.061Z,16.88
2022-08-03T04:08:06.052Z,16.77
2022-08-03T04:09:06.061Z,16.81
2022-08-03T04:10:14.042Z,16.78
2022-08-03T04:11:07.025Z,16.80
2022-08-03T04:12:06.013Z,16.88
2022-08-03T04:13:05.995Z,16.77
2022-08-03T04:14:06.006Z,16.92
2022-08-03T04:15:05.984Z,16.85
2022-08-03T04:16:05.973Z,16.89
2022-08-03T04:17:05.954Z,16.95
2022-08-03T04:18:05.957Z,16.92
2022-08-03T04:19:05.961Z,17.06
2022-08-03T04:20:05.935Z,16.95
2022-08-03T04:21:05.924Z,17.15
2022-08-03T04:22:05.914Z,17.04
2022-08-03T04:23:14.558Z,17.08
2022-08-03T04:24:06.907Z,17.11
2022-08-03T04:25:05.892Z,17.11
2022-08-03T04:26:05.876Z,17.14
2022-08-03T04:27:05.868Z,17.25
2022-08-03T04:28:20.930Z,17.28
2022-08-03T04:29:06.856Z,17.26
2022-08-03T04:30:05.834Z,17.30
2022-08-03T04:31:05.818Z,17.20
2022-08-03T04:32:05.809Z,17.26
2022-08-03T04:33:05.806Z,17.32
2022-08-03T04:34:05.815Z,17.35
2022-08-03T04:35:05.785Z,17.33
2022-08-03T04:36:05.780Z,17.35
2022-08-03T04:37:05.763Z,17.47
2022-08-03T04:38:05.756Z,17.35
2022-08-03T04:39:05.766Z,17.43
2022-08-03T04:40:05.741Z,17.43
2022-08-03T04:41:05.737Z,17.53
2022-08-03T04:42:08.521Z,17.51
2022-08-03T04:43:05.706Z,17.57
2022-08-03T04:44:05.718Z,17.57
2022-08-03T04:45:05.683Z,17.66
2022-08-03T04:46:05.705Z,17.73
2022-08-03T04:47:05.688Z,17.63
2022-08-03T04:48:05.659Z,17.64
2022-08-03T04:49:05.702Z,17.73
2022-08-03T04:50:10.425Z,17.74
2022-08-03T04:51:07.637Z,17.76
2022-08-03T04:52:05.625Z,17.79
2022-08-03T04:53:05.615Z,17.85
2022-08-03T04:54:05.623Z,17.87
2022-08-03T04:55:05.595Z,17.84
2022-08-03T04:56:05.585Z,17.82
2022-08-03T04:57:05.582Z,17.85
2022-08-03T04:58:05.565Z,17.88
2022-08-03T04:59:05.576Z,17.87
2022-08-03T05:00:05.548Z,18.02
2022-08-03T05:01:05.537Z,18.04
2022-08-03T05:02:05.579Z,18.00
2022-08-03T05:03:23.466Z,18.07
2022-08-03T05:04:06.520Z,18.25
2022-08-03T05:05:05.501Z,18.27
2022-08-03T05:06:11.453Z,18.33
2022-08-03T05:07:12.234Z,18.19
2022-08-03T05:08:06.460Z,18.28
2022-08-03T05:09:05.472Z,18.34
2022-08-03T05:10:05.455Z,18.37
2022-08-03T05:11:06.438Z,18.46
2022-08-03T05:12:05.430Z,18.54
2022-08-03T05:13:05.419Z,18.49
2022-08-03T05:14:05.425Z,18.49
2022-08-03T05:15:05.396Z,18.52
2022-08-03T05:16:05.392Z,18.58
2022-08-03T05:17:05.379Z,18.68
2022-08-03T05:18:05.371Z,18.62
2022-08-03T05:19:05.376Z,18.64
2022-08-03T05:20:05.353Z,18.72
2022-08-03T05:21:05.339Z,18.84
2022-08-03T05:22:05.331Z,18.72
2022-08-03T05:23:05.316Z,18.90
2022-08-03T05:24:05.318Z,18.86
2022-08-03T05:25:05.297Z,18.87
2022-08-03T05:26:05.289Z,18.86
2022-08-03T05:27:05.276Z,18.91
2022-08-03T05:28:05.269Z,18.90
2022-08-03T05:29:05.277Z,18.95
2022-08-03T05:30:27.337Z,19.10
2022-08-03T05:31:06.237Z,19.14
2022-08-03T05:32:16.199Z,19.17
2022-08-03T05:33:06.216Z,19.20
2022-08-03T05:34:05.224Z,19.25
2022-08-03T05:36:01.223Z,19.35
2022-08-03T05:36:06.228Z,19.36
2022-08-03T05:37:05.273Z,19.47
2022-08-03T05:38:05.165Z,19.48
2022-08-03T05:39:05.173Z,19.54
2022-08-03T05:40:05.142Z,19.50
2022-08-03T05:41:22.294Z,19.58
2022-08-03T05:42:06.131Z,19.66
2022-08-03T05:43:05.124Z,19.63
2022-08-03T05:44:05.228Z,19.70
2022-08-03T05:45:05.105Z,19.70
2022-08-03T05:46:12.015Z,19.83
2022-08-03T05:47:06.081Z,19.88
2022-08-03T05:48:05.075Z,19.87
2022-08-03T05:49:05.128Z,19.75
2022-08-03T05:50:05.052Z,19.73
2022-08-03T05:51:05.046Z,19.70
2022-08-03T05:52:14.243Z,19.93
2022-08-03T05:53:06.021Z,19.75
2022-08-03T05:54:05.029Z,19.76
2022-08-03T05:55:04.994Z,19.94
2022-08-03T05:56:14.060Z,19.94
2022-08-03T05:57:05.984Z,20.00
2022-08-03T05:58:04.975Z,19.93
2022-08-03T05:59:35.446Z,20.05
2022-08-03T06:00:05.948Z,20.09
2022-08-03T06:01:05.033Z,20.06
2022-08-03T06:02:04.952Z,20.16
2022-08-03T06:03:05.016Z,20.28
2022-08-03T06:04:04.949Z,20.27
2022-08-03T06:05:04.917Z,20.34
2022-08-03T06:06:04.926Z,20.35
2022-08-03T06:07:04.925Z,20.47
2022-08-03T06:08:04.877Z,20.53
2022-08-03T06:09:04.895Z,20.65
2022-08-03T06:10:35.662Z,20.64
2022-08-03T06:11:05.855Z,20.61
2022-08-03T06:12:04.868Z,20.65
2022-08-03T06:13:04.829Z,20.74
2022-08-03T06:14:04.839Z,20.76
2022-08-03T06:15:04.826Z,20.81
2022-08-03T06:16:04.800Z,20.93
2022-08-03T06:17:04.798Z,20.99
2022-08-03T06:18:04.787Z,20.98
2022-08-03T06:19:04.794Z,21.09
2022-08-03T06:20:04.763Z,21.19
2022-08-03T06:21:14.098Z,21.09
2022-08-03T06:22:05.750Z,21.23
2022-08-03T06:23:04.735Z,21.27
2022-08-03T06:24:04.747Z,21.35
2022-08-03T06:25:08.230Z,21.34
2022-08-03T06:26:04.709Z,21.36
2022-08-03T06:27:04.694Z,21.27
2022-08-03T06:28:04.693Z,21.34
2022-08-03T06:29:04.699Z,21.30
2022-08-03T06:30:04.667Z,21.29
2022-08-03T06:31:06.519Z,21.39
2022-08-03T06:32:04.653Z,21.41
2022-08-03T06:33:04.638Z,21.51
2022-08-03T06:34:34.183Z,21.44
2022-08-03T06:35:05.626Z,21.54
2022-08-03T06:36:04.614Z,21.44
2022-08-03T06:37:04.594Z,21.46
2022-08-03T06:38:04.593Z,21.45
2022-08-03T06:39:04.595Z,21.61
2022-08-03T06:40:04.591Z,21.69
2022-08-03T06:41:04.565Z,21.81
2022-08-03T06:42:04.552Z,21.91
2022-08-03T06:43:04.541Z,22.02
2022-08-03T06:44:04.705Z,22.04
2022-08-03T06:45:04.514Z,22.20
2022-08-03T06:46:04.511Z,22.20
2022-08-03T06:47:04.506Z,22.23
2022-08-03T06:48:04.495Z,22.32
2022-08-03T06:49:04.535Z,22.38
2022-08-03T06:50:14.417Z,22.39
2022-08-03T06:51:05.465Z,22.47
2022-08-03T06:52:06.957Z,22.60
2022-08-03T06:53:05.454Z,22.49
2022-08-03T06:54:04.465Z,22.49
2022-08-03T06:55:04.430Z,22.60
2022-08-03T06:56:04.419Z,22.62
2022-08-03T06:57:04.404Z,22.68
2022-08-03T06:58:04.401Z,22.75
2022-08-03T06:59:04.392Z,22.65
2022-08-03T07:00:10.591Z,22.69
2022-08-03T07:01:05.399Z,22.86
2022-08-03T07:02:04.354Z,22.92
2022-08-03T07:03:04.358Z,22.94
2022-08-03T07:04:04.344Z,22.83
2022-08-03T07:05:04.354Z,23.07
2022-08-03T07:06:04.320Z,23.14
2022-08-03T07:07:04.314Z,23.09
2022-08-03T07:08:04.294Z,23.29
2022-08-03T07:09:04.279Z,23.29
2022-08-03T07:10:04.297Z,23.24
2022-08-03T07:11:04.265Z,23.43
2022-08-03T07:12:04.263Z,23.40
2022-08-03T07:13:04.247Z,23.45
2022-08-03T07:14:04.238Z,23.49
2022-08-03T07:15:04.230Z,23.65
2022-08-03T07:16:05.302Z,23.61
2022-08-03T07:17:11.438Z,23.75
2022-08-03T07:18:04.201Z,23.76
2022-08-03T07:19:04.183Z,23.72
2022-08-03T07:20:04.202Z,23.71
2022-08-03T07:21:04.158Z,23.67
2022-08-03T07:22:04.463Z,23.53
2022-08-03T07:23:04.143Z,23.67
2022-08-03T07:24:04.176Z,23.71
2022-08-03T07:25:04.126Z,23.79
2022-08-03T07:26:04.115Z,23.85
2022-08-03T07:27:04.105Z,23.80
2022-08-03T07:28:04.099Z,23.80
2022-08-03T07:29:04.156Z,23.94
2022-08-03T07:30:05.092Z,24.01
2022-08-03T07:31:04.070Z,24.17
2022-08-03T07:32:04.051Z,24.19
2022-08-03T07:33:04.057Z,24.26
2022-08-03T07:34:04.097Z,24.19
2022-08-03T07:35:04.091Z,24.20
2022-08-03T07:36:05.021Z,24.07
2022-08-03T07:37:04.009Z,24.10
2022-08-03T07:38:04.001Z,24.13
2022-08-03T07:39:16.592Z,24.07
2022-08-03T07:40:04.997Z,24.05
2022-08-03T07:41:03.962Z,24.20
2022-08-03T07:42:03.978Z,24.31
2022-08-03T07:43:03.978Z,24.38
2022-08-03T07:44:03.943Z,24.47
2022-08-03T07:45:03.963Z,24.53
2022-08-03T07:46:03.923Z,24.50
2022-08-03T07:47:03.907Z,24.53
2022-08-03T07:48:07.548Z,24.59
2022-08-03T07:49:04.935Z,24.64
2022-08-03T07:50:03.905Z,24.85
2022-08-03T07:51:03.900Z,24.91
2022-08-03T07:52:03.848Z,25.09
2022-08-03T07:53:03.840Z,25.24
2022-08-03T07:54:03.841Z,25.28
2022-08-03T07:55:03.872Z,25.31
2022-08-03T07:56:03.809Z,25.38
2022-08-03T07:57:03.810Z,25.47
2022-08-03T07:58:03.804Z,25.35
2022-08-03T07:59:03.790Z,25.52
2022-08-03T08:00:03.812Z,25.52
2022-08-03T08:01:03.793Z,25.52
2022-08-03T08:02:03.755Z,25.61
2022-08-03T08:03:03.758Z,25.64
2022-08-03T08:04:03.730Z,25.62
2022-08-03T08:05:05.900Z,25.69
2022-08-03T08:06:04.723Z,25.89
2022-08-03T08:07:03.712Z,25.99
2022-08-03T08:08:03.692Z,26.02
2022-08-03T08:09:03.705Z,26.05
2022-08-03T08:10:03.705Z,26.15
2022-08-03T08:11:03.706Z,26.31
2022-08-03T08:12:03.657Z,26.32
2022-08-03T08:13:04.660Z,26.32
2022-08-03T08:14:03.653Z,26.31
2022-08-03T08:15:03.665Z,26.35
2022-08-03T08:16:03.620Z,26.36
2022-08-03T08:17:07.390Z,26.29
2022-08-03T08:18:04.605Z,26.22
2022-08-03T08:19:03.594Z,26.25
2022-08-03T08:20:03.589Z,26.24
2022-08-03T08:21:03.576Z,26.29
2022-08-03T08:22:03.578Z,26.37
2022-08-03T08:23:19.284Z,26.40
2022-08-03T08:24:08.241Z,26.58
2022-08-03T08:25:03.555Z,26.68
2022-08-03T08:26:03.533Z,26.77
2022-08-03T08:27:03.527Z,26.76
2022-08-03T08:28:31.598Z,26.79
2022-08-03T08:29:04.499Z,26.86
2022-08-03T08:30:10.925Z,26.94
2022-08-03T08:31:05.603Z,26.89
2022-08-03T08:32:03.485Z,26.81
2022-08-03T08:33:03.465Z,26.79
2022-08-03T08:34:04.628Z,26.86
2022-08-03T08:35:04.494Z,26.86
2022-08-03T08:36:03.437Z,26.84
2022-08-03T08:37:03.419Z,26.94
2022-08-03T08:38:05.529Z,26.94
2022-08-03T08:39:03.419Z,27.09
2022-08-03T08:40:03.425Z,27.20
2022-08-03T08:41:03.388Z,27.29
2022-08-03T08:42:03.385Z,27.43
2022-08-03T08:43:03.365Z,27.54
2022-08-03T08:44:03.349Z,27.59
2022-08-03T08:45:03.364Z,27.80
2022-08-03T08:46:03.338Z,27.85
2022-08-03T08:47:03.323Z,27.88
2022-08-03T08:48:06.606Z,27.96
2022-08-03T08:49:04.913Z,28.10
2022-08-03T08:50:10.110Z,28.17
2022-08-03T08:51:05.285Z,28.10
2022-08-03T08:52:03.287Z,28.16
2022-08-03T08:53:03.272Z,28.11
2022-08-03T08:54:03.273Z,28.25
2022-08-03T08:55:03.278Z,28.26
2022-08-03T08:56:03.245Z,28.35
2022-08-03T08:57:06.671Z,28.40
2022-08-03T08:58:04.225Z,28.46
2022-08-03T08:59:03.212Z,28.56
2022-08-03T09:00:03.219Z,28.60
2022-08-03T09:01:03.251Z,28.72
2022-08-03T09:02:03.182Z,28.73
2022-08-03T09:03:03.197Z,28.70
2022-08-03T09:04:03.155Z,28.59
2022-08-03T09:05:07.353Z,28.62
2022-08-03T09:06:04.165Z,28.53
2022-08-03T09:07:19.595Z,28.68
2022-08-03T09:08:05.124Z,28.63
2022-08-03T09:09:03.115Z,28.63
2022-08-03T09:10:11.886Z,28.75
2022-08-03T09:11:04.110Z,28.80
2022-08-03T09:12:21.128Z,28.81
2022-08-03T09:13:05.102Z,28.87
2022-08-03T09:14:03.079Z,29.06
2022-08-03T09:15:16.712Z,29.19
2022-08-03T09:16:05.053Z,29.23
2022-08-03T09:17:03.052Z,29.18
2022-08-03T09:18:03.069Z,29.08
2022-08-03T09:19:03.025Z,29.10
2022-08-03T09:20:03.952Z,29.06
2022-08-03T09:21:18.997Z,29.18
2022-08-03T09:22:04.994Z,29.28
2022-08-03T09:23:13.177Z,29.29
2022-08-03T09:24:06.351Z,29.35
2022-08-03T09:25:23.229Z,29.31
2022-08-03T09:26:04.959Z,29.33
2022-08-03T09:27:02.946Z,29.41
2022-08-03T09:28:02.939Z,29.38
2022-08-03T09:29:07.134Z,29.40
2022-08-03T09:30:04.928Z,29.35
2022-08-03T09:31:03.927Z,29.45
2022-08-03T09:32:02.890Z,29.41
2022-08-03T09:33:02.887Z,29.34
2022-08-03T09:34:02.886Z,29.33
2022-08-03T09:35:02.891Z,29.40
2022-08-03T09:36:02.857Z,29.41
2022-08-03T09:37:02.835Z,29.47
2022-08-03T09:38:12.180Z,29.44
2022-08-03T09:39:03.830Z,29.41
2022-08-03T09:40:02.878Z,29.41
2022-08-03T09:41:02.821Z,29.56
2022-08-03T09:42:02.809Z,29.28
2022-08-03T09:43:02.796Z,29.47
2022-08-03T09:44:02.783Z,29.47
2022-08-03T09:45:02.798Z,29.75
2022-08-03T09:46:02.768Z,29.86
2022-08-03T09:47:02.759Z,29.99
2022-08-03T09:48:02.729Z,30.03
2022-08-03T09:49:02.796Z,29.99
2022-08-03T09:50:03.745Z,30.03
2022-08-03T09:51:14.151Z,29.99
2022-08-03T09:52:39.352Z,30.02
2022-08-03T09:53:03.731Z,29.89
2022-08-03T09:54:02.684Z,29.82
2022-08-03T09:55:02.791Z,29.86
2022-08-03T09:56:36.146Z,29.71
2022-08-03T09:57:03.660Z,29.72
2022-08-03T09:58:02.656Z,29.77
2022-08-03T09:59:02.657Z,29.92
2022-08-03T10:00:07.984Z,29.93
2022-08-03T10:01:02.679Z,30.02
2022-08-03T10:02:02.627Z,30.03
2022-08-03T10:03:02.597Z,30.03
2022-08-03T10:04:03.552Z,30.00
2022-08-03T10:05:02.602Z,30.11
2022-08-03T10:06:03.542Z,30.09
2022-08-03T10:07:02.570Z,30.33
2022-08-03T10:08:02.564Z,30.31
2022-08-03T10:09:02.544Z,30.45
2022-08-03T10:10:30.872Z,30.52
2022-08-03T10:11:03.548Z,30.62
2022-08-03T10:12:02.522Z,30.49
2022-08-03T10:13:02.508Z,30.59
2022-08-03T10:14:02.498Z,30.49
2022-08-03T10:15:02.490Z,30.45
2022-08-03T10:16:23.956Z,30.36
2022-08-03T10:17:03.473Z,30.36
2022-08-03T10:18:02.469Z,30.29
2022-08-03T10:19:02.456Z,30.40
2022-08-03T10:20:02.435Z,30.43
2022-08-03T10:21:02.454Z,30.54
2022-08-03T10:22:02.422Z,30.50
2022-08-03T10:23:02.420Z,30.68
2022-08-03T10:24:02.418Z,30.74
2022-08-03T10:25:02.394Z,30.81
2022-08-03T10:26:02.428Z,30.74
2022-08-03T10:27:02.375Z,30.65
2022-08-03T10:28:02.364Z,30.72
2022-08-03T10:29:02.358Z,30.47
2022-08-03T10:30:02.349Z,30.64
2022-08-03T10:31:02.356Z,30.74
2022-08-03T10:32:02.338Z,30.71
2022-08-03T10:33:02.321Z,30.81
2022-08-03T10:34:02.343Z,30.74
2022-08-03T10:35:04.038Z,30.68
2022-08-03T10:36:03.309Z,30.64
2022-08-03T10:37:02.289Z,30.40
2022-08-03T10:38:02.273Z,30.50
2022-08-03T10:39:02.270Z,29.94
2022-08-03T10:40:02.245Z,29.94
2022-08-03T10:41:03.247Z,30.02
2022-08-03T10:42:02.878Z,30.07
2022-08-03T10:43:02.231Z,30.46
2022-08-03T10:44:02.215Z,30.53
2022-08-03T10:45:02.198Z,30.76
2022-08-03T10:46:02.209Z,30.99
2022-08-03T10:47:02.178Z,31.11
2022-08-03T10:48:02.175Z,30.94
2022-08-03T10:49:02.206Z,30.68
2022-08-03T10:50:02.154Z,30.37
2022-08-03T10:51:02.157Z,30.40
2022-08-03T10:52:02.688Z,30.57
2022-08-03T10:53:02.207Z,30.36
2022-08-03T10:54:02.271Z,30.38
2022-08-03T10:55:03.274Z,30.38
2022-08-03T10:56:03.108Z,30.45
2022-08-03T10:57:13.629Z,30.54
2022-08-03T10:58:05.738Z,30.71
2022-08-03T10:59:03.945Z,31.15
2022-08-03T11:00:02.058Z,31.13
2022-08-03T11:01:02.172Z,31.40
2022-08-03T11:02:02.054Z,31.38
2022-08-03T11:03:02.040Z,31.64
2022-08-03T11:04:05.905Z,31.72
2022-08-03T11:05:02.021Z,31.92
2022-08-03T11:06:02.027Z,31.92
2022-08-03T11:07:02.001Z,32.02
2022-08-03T11:08:02.017Z,32.10
2022-08-03T11:09:01.984Z,32.13
2022-08-03T11:10:01.968Z,32.07
2022-08-03T11:11:01.975Z,32.03
2022-08-03T11:12:01.948Z,32.21
2022-08-03T11:15:13.570Z,32.35
2022-08-03T11:15:47.200Z,32.33
2022-08-03T11:16:47.067Z,32.39
2022-08-03T11:17:55.807Z,32.37
2022-08-03T11:18:47.047Z,32.18
2022-08-03T11:21:37.573Z,31.64
2022-08-03T11:22:13.287Z,31.62
2022-08-03T11:23:13.277Z,31.55
2022-08-03T11:24:13.265Z,31.79
2022-08-03T11:25:53.662Z,31.98
2022-08-03T11:26:14.282Z,32.18
2022-08-03T11:27:14.357Z,32.15
2022-08-03T11:28:14.337Z,32.17
2022-08-03T11:29:15.374Z,31.91
2022-08-03T11:30:14.319Z,31.58
2022-08-03T11:31:32.776Z,31.72
2022-08-03T11:32:19.417Z,31.55
2022-08-03T11:33:15.355Z,31.49
2022-08-03T11:34:14.294Z,31.67
2022-08-03T11:35:14.315Z,31.77
2022-08-03T11:36:14.315Z,31.57
2022-08-03T11:37:15.265Z,31.45
2022-08-03T11:39:38.424Z,30.96
2022-08-03T11:40:38.446Z,30.87
2022-08-03T11:41:44.878Z,30.98
2022-08-03T11:42:39.412Z,31.33
2022-08-03T11:43:38.397Z,31.58
2022-08-03T11:44:38.395Z,31.67
2022-08-03T11:45:38.393Z,31.45
2022-08-03T11:46:38.374Z,30.72
2022-08-03T11:47:51.008Z,30.45
2022-08-03T11:48:39.358Z,30.69
2022-08-03T11:49:38.382Z,30.96
2022-08-03T11:50:38.356Z,31.18
2022-08-03T11:51:38.325Z,31.12
2022-08-03T11:52:38.320Z,30.83
2022-08-03T11:53:42.035Z,30.89
2022-08-03T11:54:39.420Z,30.93
2022-08-03T11:55:39.434Z,30.78
2022-08-03T11:56:39.401Z,30.80
2022-08-03T11:59:01.491Z,31.08
2022-08-03T11:59:17.314Z,30.91
2022-08-03T11:59:40.376Z,31.09
2022-08-03T12:00:40.580Z,31.30
2022-08-03T12:01:39.362Z,31.40
2022-08-03T12:02:39.348Z,31.67
2022-08-03T12:03:39.408Z,31.61
2022-08-03T12:04:39.323Z,31.09
2022-08-03T12:05:39.309Z,30.76
2022-08-03T12:06:42.758Z,30.80
2022-08-03T12:08:04.457Z,30.69
2022-08-03T12:08:40.290Z,30.65
2022-08-03T12:09:39.271Z,30.65
2022-08-03T12:10:39.278Z,30.69
2022-08-03T12:11:39.273Z,30.96
2022-08-03T12:12:43.342Z,30.67
2022-08-03T12:14:45.747Z,30.83
2022-08-03T12:14:49.993Z,31.17
2022-08-03T12:15:40.218Z,31.43
2022-08-03T12:16:39.227Z,31.53
2022-08-03T12:17:39.202Z,31.61
2022-08-03T12:18:39.204Z,31.75
2022-08-03T12:19:39.196Z,31.62
2022-08-03T12:20:39.174Z,31.70
2022-08-03T12:21:39.163Z,31.84
2022-08-03T12:22:39.153Z,31.99
2022-08-03T12:23:39.144Z,32.17
2022-08-03T12:24:39.136Z,32.27
2022-08-03T12:25:40.012Z,32.36
2022-08-03T12:26:39.137Z,32.40
2022-08-03T12:27:39.151Z,32.54
2022-08-03T12:28:43.017Z,32.61
2022-08-03T12:29:39.068Z,32.64
2022-08-03T12:30:39.080Z,32.66
2022-08-03T12:31:39.080Z,32.71
2022-08-03T12:32:39.063Z,32.88
2022-08-03T12:33:39.046Z,33.07
2022-08-03T12:34:42.965Z,33.31
2022-08-03T12:35:40.036Z,33.41
2022-08-03T12:36:40.031Z,33.42
2022-08-03T12:37:39.001Z,33.34
2022-08-03T12:38:39.531Z,32.98
2022-08-03T12:39:38.988Z,33.08
2022-08-03T12:40:39.982Z,33.08
2022-08-03T12:41:38.984Z,33.14
2022-08-03T12:42:38.986Z,33.42
2022-08-03T12:43:39.837Z,33.42
2022-08-03T12:44:39.948Z,32.91
2022-08-03T12:45:38.962Z,32.17
2022-08-03T12:46:41.645Z,31.85
2022-08-03T12:47:39.934Z,32.00
2022-08-03T12:48:38.907Z,32.07
2022-08-03T12:49:38.939Z,32.17
2022-08-03T12:50:38.888Z,32.32
2022-08-03T12:51:38.895Z,32.61
2022-08-03T12:52:38.862Z,32.55
2022-08-03T12:53:38.852Z,32.81
2022-08-03T12:54:38.854Z,32.85
2022-08-03T12:55:56.200Z,33.06
2022-08-03T12:56:39.892Z,33.14